Decatur, IL (62526)

11:19 AM CST on November 27, 2014 (GMT -0600)
Forsyth Pkwy | Change Station
CLOSE
Current Station
Personal Weather Station
Location: Forsyth, IL
Elevation: 669 ft
Nearby Weather Stations

Elev 669 ft 39.93 °N, 88.97 °W | Updated 4 minutes ago

Snow
Snow
28.5 °F
Feels Like 28 °F
N
3.0
Wind Variable Wind from WNW
Gusts 5.0 mph

Today
High -- | Low -- °F
--% Chance of Precip.
Yesterday
High -- | Low -- °F
Precip. -- in
6:53 AM 4:32 PM
Waxing Crescent, 31% visible
Pressure 30.42 in
Visibility 2.0 miles
Clouds Mostly Cloudy 1400 ft
Mostly Cloudy 2000 ft
Overcast 2800 ft
Windchill 28 °F
Dew Point 26 °F
Humidity 89%
Rainfall 0.00 in
Snow Depth Not available.
UV 1 out of 12
Pollen .10 out of 12
Air Quality Not available.
Flu Activity Not available.
SPECI KDEC 271713Z 28012G19KT 2SM -SN BKN014 BKN020 OVC028 M02/M05 A3042 RMK AO2 P0000 T10221050

More Conditions Fewer Conditions

Pressure 30.42 in
Visibility 2.0 miles
Clouds Mostly Cloudy 1400 ft
Mostly Cloudy 2000 ft
Overcast 2800 ft
Windchill 28 °F
Dew Point 26 °F
Humidity 89%
Rainfall 0.00 in
Snow Depth Not available.
UV 1 out of 12
Pollen .10 out of 12
Air Quality Not available.
Flu Activity Not available.
SPECI KDEC 271713Z 28012G19KT 2SM -SN BKN014 BKN020 OVC028 M02/M05 A3042 RMK AO2 P0000 T10221050

More Conditions Fewer Conditions

10-Day Weather Forecast

Almanac

Astronomy

Nov. 27, 2014 Rise Set
Actual Time
Civil Twilight
Nautical Twilight
Astronomical Twilight
Moon
Length of Visible Light
Length of Day
Tomorrow will be .
, % of the Moon is Illuminated

Today's Extremes

State Highs State Lows

Community

WunderPhotos

Upload Photos

1,774,046 photos uploaded!

WunderBlogs® & News

Nearby

Air Quality

  Air Quality AQ Index Pollutant
Not available.

Snow Depth

Station Depth Elevation

Earthquake Activity

City Distance Mag. Time & Date
Minimum magnitude displayed is 2.5.

Coastal Water Temperatures

Place Temperature

Nearby Weather Stations